sensor_id;sensor_type;location;lat;lon;timestamp;pressure;altitude;pressure_sealevel;temperature;humidity
76164;BME280;64897;50.816;4.422;2023-05-07T00:01:28;101011.09;;;14.99;85.69
76164;BME280;64897;50.816;4.422;2023-05-07T00:04:16;101014.66;;;14.98;86.15
76164;BME280;64897;50.816;4.422;2023-05-07T00:07:03;101009.66;;;14.95;86.04
76164;BME280;64897;50.816;4.422;2023-05-07T00:09:51;101005.63;;;14.91;86.10
76164;BME280;64897;50.816;4.422;2023-05-07T00:12:37;101008.50;;;14.88;86.32
76164;BME280;64897;50.816;4.422;2023-05-07T00:15:24;101003.00;;;14.91;86.37
76164;BME280;64897;50.816;4.422;2023-05-07T00:18:11;101002.41;;;14.88;85.88
76164;BME280;64897;50.816;4.422;2023-05-07T00:20:59;100989.25;;;14.88;84.38
76164;BME280;64897;50.816;4.422;2023-05-07T00:23:46;100983.88;;;14.89;85.54
76164;BME280;64897;50.816;4.422;2023-05-07T00:26:33;100981.34;;;14.88;84.38
76164;BME280;64897;50.816;4.422;2023-05-07T00:29:20;100980.50;;;14.87;85.66
76164;BME280;64897;50.816;4.422;2023-05-07T00:32:06;100983.13;;;14.87;84.56
76164;BME280;64897;50.816;4.422;2023-05-07T00:34:54;100971.91;;;14.85;84.52
76164;BME280;64897;50.816;4.422;2023-05-07T00:37:42;100981.94;;;14.91;84.62
76164;BME280;64897;50.816;4.422;2023-05-07T00:40:29;100979.91;;;14.95;83.87
76164;BME280;64897;50.816;4.422;2023-05-07T00:43:16;100979.50;;;14.99;83.78
76164;BME280;64897;50.816;4.422;2023-05-07T00:46:03;100972.31;;;15.01;83.29
76164;BME280;64897;50.816;4.422;2023-05-07T00:48:51;100975.66;;;15.03;82.67
76164;BME280;64897;50.816;4.422;2023-05-07T00:51:38;100972.06;;;15.04;83.71
76164;BME280;64897;50.816;4.422;2023-05-07T00:54:26;100972.91;;;15.05;83.09
76164;BME280;64897;50.816;4.422;2023-05-07T00:57:13;100964.06;;;15.06;82.13
76164;BME280;64897;50.816;4.422;2023-05-07T01:00:01;100956.00;;;15.07;82.06
76164;BME280;64897;50.816;4.422;2023-05-07T01:02:49;100951.31;;;15.11;81.63
76164;BME280;64897;50.816;4.422;2023-05-07T01:05:36;100959.38;;;15.09;82.04
76164;BME280;64897;50.816;4.422;2023-05-07T01:08:23;100952.44;;;15.08;82.22
76164;BME280;64897;50.816;4.422;2023-05-07T01:11:13;100950.75;;;15.07;82.00
76164;BME280;64897;50.816;4.422;2023-05-07T01:14:00;100951.00;;;15.04;82.52
76164;BME280;64897;50.816;4.422;2023-05-07T01:16:48;100944.09;;;15.03;83.24
76164;BME280;64897;50.816;4.422;2023-05-07T01:19:37;100944.59;;;14.97;83.65
76164;BME280;64897;50.816;4.422;2023-05-07T01:22:29;100943.31;;;14.92;84.25
76164;BME280;64897;50.816;4.422;2023-05-07T01:25:17;100940.09;;;14.88;84.40
76164;BME280;64897;50.816;4.422;2023-05-07T01:28:08;100945.22;;;14.90;83.94
76164;BME280;64897;50.816;4.422;2023-05-07T01:31:01;100947.84;;;14.90;85.11
76164;BME280;64897;50.816;4.422;2023-05-07T01:33:49;100941.03;;;14.87;85.10
76164;BME280;64897;50.816;4.422;2023-05-07T01:36:39;100948.22;;;14.85;86.12
76164;BME280;64897;50.816;4.422;2023-05-07T01:39:28;100952.06;;;14.81;85.70
76164;BME280;64897;50.816;4.422;2023-05-07T01:42:15;100942.53;;;14.80;85.66
76164;BME280;64897;50.816;4.422;2023-05-07T01:45:02;100946.34;;;14.76;86.14
76164;BME280;64897;50.816;4.422;2023-05-07T01:47:50;100945.41;;;14.77;86.15
76164;BME280;64897;50.816;4.422;2023-05-07T01:50:38;100946.59;;;14.73;86.73
76164;BME280;64897;50.816;4.422;2023-05-07T01:53:27;100951.75;;;14.74;85.49
76164;BME280;64897;50.816;4.422;2023-05-07T01:56:16;100950.78;;;14.75;84.91
76164;BME280;64897;50.816;4.422;2023-05-07T01:59:03;100948.03;;;14.77;85.68
76164;BME280;64897;50.816;4.422;2023-05-07T02:01:50;100951.63;;;14.76;85.43
76164;BME280;64897;50.816;4.422;2023-05-07T02:04:37;100947.06;;;14.78;85.10
76164;BME280;64897;50.816;4.422;2023-05-07T02:07:24;100959.25;;;14.79;85.28
76164;BME280;64897;50.816;4.422;2023-05-07T02:10:11;100962.03;;;14.77;85.93
76164;BME280;64897;50.816;4.422;2023-05-07T02:13:00;100963.13;;;14.75;85.15
76164;BME280;64897;50.816;4.422;2023-05-07T02:15:47;100956.78;;;14.77;85.86
76164;BME280;64897;50.816;4.422;2023-05-07T02:18:36;100958.47;;;14.67;85.13
76164;BME280;64897;50.816;4.422;2023-05-07T02:21:23;100959.22;;;14.58;86.50
76164;BME280;64897;50.816;4.422;2023-05-07T02:24:10;100962.31;;;14.52;87.54
76164;BME280;64897;50.816;4.422;2023-05-07T02:26:57;100953.63;;;14.52;87.61
76164;BME280;64897;50.816;4.422;2023-05-07T02:29:45;100951.50;;;14.46;88.13
76164;BME280;64897;50.816;4.422;2023-05-07T02:32:32;100965.72;;;14.43;87.96
76164;BME280;64897;50.816;4.422;2023-05-07T02:35:19;100963.22;;;14.42;88.66
76164;BME280;64897;50.816;4.422;2023-05-07T02:38:06;100961.19;;;14.34;88.94
76164;BME280;64897;50.816;4.422;2023-05-07T02:40:54;100956.88;;;14.33;88.37
76164;BME280;64897;50.816;4.422;2023-05-07T02:43:41;100954.84;;;14.25;89.65
76164;BME280;64897;50.816;4.422;2023-05-07T02:46:30;100961.31;;;14.21;89.64
76164;BME280;64897;50.816;4.422;2023-05-07T02:49:24;100964.31;;;14.17;90.01
76164;BME280;64897;50.816;4.422;2023-05-07T02:52:11;100963.47;;;14.16;90.12
76164;BME280;64897;50.816;4.422;2023-05-07T02:54:58;100966.19;;;14.15;90.77
76164;BME280;64897;50.816;4.422;2023-05-07T02:57:44;100969.66;;;14.15;90.76
76164;BME280;64897;50.816;4.422;2023-05-07T03:00:31;100974.69;;;14.18;90.70
76164;BME280;64897;50.816;4.422;2023-05-07T03:03:49;100968.34;;;14.21;90.38
76164;BME280;64897;50.816;4.422;2023-05-07T03:06:36;100971.47;;;14.26;90.27
76164;BME280;64897;50.816;4.422;2023-05-07T03:09:23;100964.38;;;14.26;90.66
76164;BME280;64897;50.816;4.422;2023-05-07T03:12:10;100970.88;;;14.22;90.68
76164;BME280;64897;50.816;4.422;2023-05-07T03:14:56;100972.66;;;14.22;90.86
76164;BME280;64897;50.816;4.422;2023-05-07T03:17:43;100966.81;;;14.18;90.83
76164;BME280;64897;50.816;4.422;2023-05-07T03:20:32;100972.53;;;14.12;91.33
76164;BME280;64897;50.816;4.422;2023-05-07T03:23:19;100975.16;;;14.12;91.60
76164;BME280;64897;50.816;4.422;2023-05-07T03:26:05;100968.97;;;14.13;91.61
76164;BME280;64897;50.816;4.422;2023-05-07T03:28:52;100972.91;;;14.19;91.36
76164;BME280;64897;50.816;4.422;2023-05-07T03:31:39;100977.91;;;14.22;90.84
76164;BME280;64897;50.816;4.422;2023-05-07T03:34:25;100979.69;;;14.21;91.08
76164;BME280;64897;50.816;4.422;2023-05-07T03:37:14;100977.06;;;14.21;91.14
76164;BME280;64897;50.816;4.422;2023-05-07T03:40:01;100980.41;;;14.23;91.46
76164;BME280;64897;50.816;4.422;2023-05-07T03:42:52;100978.75;;;14.22;91.56
76164;BME280;64897;50.816;4.422;2023-05-07T03:45:42;100978.28;;;14.17;91.73
76164;BME280;64897;50.816;4.422;2023-05-07T03:48:34;100973.97;;;14.16;91.57
76164;BME280;64897;50.816;4.422;2023-05-07T03:51:21;100973.28;;;14.14;91.62
76164;BME280;64897;50.816;4.422;2023-05-07T03:54:09;100972.28;;;14.15;91.23
76164;BME280;64897;50.816;4.422;2023-05-07T03:57:01;100971.69;;;14.12;91.69
76164;BME280;64897;50.816;4.422;2023-05-07T03:59:47;100982.81;;;14.15;91.42
76164;BME280;64897;50.816;4.422;2023-05-07T04:02:34;100976.59;;;14.16;91.79
76164;BME280;64897;50.816;4.422;2023-05-07T04:05:24;100969.56;;;14.17;91.79
76164;BME280;64897;50.816;4.422;2023-05-07T04:08:15;100965.63;;;14.11;91.92
76164;BME280;64897;50.816;4.422;2023-05-07T04:11:08;100970.66;;;14.14;92.63
76164;BME280;64897;50.816;4.422;2023-05-07T04:13:56;100966.34;;;14.13;92.38
76164;BME280;64897;50.816;4.422;2023-05-07T04:16:43;100960.94;;;14.15;91.07
76164;BME280;64897;50.816;4.422;2023-05-07T04:19:30;100972.91;;;14.19;92.31
76164;BME280;64897;50.816;4.422;2023-05-07T04:22:19;100962.97;;;14.22;91.56
76164;BME280;64897;50.816;4.422;2023-05-07T04:25:07;100955.19;;;14.21;90.51
76164;BME280;64897;50.816;4.422;2023-05-07T04:27:57;100962.28;;;14.20;91.57
76164;BME280;64897;50.816;4.422;2023-05-07T04:30:46;100963.94;;;14.21;90.11
76164;BME280;64897;50.816;4.422;2023-05-07T04:33:33;100966.31;;;14.24;89.40
76164;BME280;64897;50.816;4.422;2023-05-07T04:36:21;100971.09;;;14.31;88.21
76164;BME280;64897;50.816;4.422;2023-05-07T04:39:17;100964.78;;;14.33;88.81
76164;BME280;64897;50.816;4.422;2023-05-07T04:42:06;100968.25;;;14.34;89.11
76164;BME280;64897;50.816;4.422;2023-05-07T04:44:56;100958.78;;;14.31;90.17
76164;BME280;64897;50.816;4.422;2023-05-07T04:47:44;100964.78;;;14.33;90.01
76164;BME280;64897;50.816;4.422;2023-05-07T04:50:30;100975.28;;;14.33;89.90
76164;BME280;64897;50.816;4.422;2023-05-07T04:53:20;100973.38;;;14.35;89.29
76164;BME280;64897;50.816;4.422;2023-05-07T04:56:09;100971.47;;;14.37;89.61
76164;BME280;64897;50.816;4.422;2023-05-07T04:59:00;100978.97;;;14.42;90.11
76164;BME280;64897;50.816;4.422;2023-05-07T05:01:49;100978.88;;;14.43;89.70
76164;BME280;64897;50.816;4.422;2023-05-07T05:04:37;100970.84;;;14.45;90.17
76164;BME280;64897;50.816;4.422;2023-05-07T05:07:24;100977.91;;;14.44;89.78
76164;BME280;64897;50.816;4.422;2023-05-07T05:10:11;100979.34;;;14.48;89.69
76164;BME280;64897;50.816;4.422;2023-05-07T05:13:00;100976.81;;;14.47;90.97
76164;BME280;64897;50.816;4.422;2023-05-07T05:15:47;100979.09;;;14.51;89.96
76164;BME280;64897;50.816;4.422;2023-05-07T05:18:36;100979.69;;;14.55;90.49
76164;BME280;64897;50.816;4.422;2023-05-07T05:21:23;100980.25;;;14.58;89.48
76164;BME280;64897;50.816;4.422;2023-05-07T05:24:15;100982.38;;;14.64;89.94
76164;BME280;64897;50.816;4.422;2023-05-07T05:27:02;100987.28;;;14.69;87.92
76164;BME280;64897;50.816;4.422;2023-05-07T05:29:50;100993.13;;;14.72;87.32
76164;BME280;64897;50.816;4.422;2023-05-07T05:32:38;100997.88;;;14.78;86.93
76164;BME280;64897;50.816;4.422;2023-05-07T05:35:27;101002.44;;;14.76;87.19
76164;BME280;64897;50.816;4.422;2023-05-07T05:38:15;101006.75;;;14.77;87.73
76164;BME280;64897;50.816;4.422;2023-05-07T05:41:02;101011.03;;;14.78;87.25
76164;BME280;64897;50.816;4.422;2023-05-07T05:43:49;101017.34;;;14.87;86.50
76164;BME280;64897;50.816;4.422;2023-05-07T05:46:37;101016.16;;;14.91;87.53
76164;BME280;64897;50.816;4.422;2023-05-07T05:49:25;101008.72;;;14.96;87.26
76164;BME280;64897;50.816;4.422;2023-05-07T05:52:14;101016.09;;;15.02;84.63
76164;BME280;64897;50.816;4.422;2023-05-07T05:55:02;101015.84;;;15.05;85.17
76164;BME280;64897;50.816;4.422;2023-05-07T05:57:49;101026.38;;;15.05;85.17
76164;BME280;64897;50.816;4.422;2023-05-07T06:00:37;101037.34;;;15.10;85.46
76164;BME280;64897;50.816;4.422;2023-05-07T06:03:25;101039.88;;;15.12;86.68
76164;BME280;64897;50.816;4.422;2023-05-07T06:06:13;101058.16;;;15.13;86.83
76164;BME280;64897;50.816;4.422;2023-05-07T06:09:03;101055.88;;;15.20;82.53
76164;BME280;64897;50.816;4.422;2023-05-07T06:11:56;101054.03;;;15.31;80.54
76164;BME280;64897;50.816;4.422;2023-05-07T06:14:44;101056.88;;;15.39;78.68
76164;BME280;64897;50.816;4.422;2023-05-07T06:17:31;101052.03;;;15.45;78.75
76164;BME280;64897;50.816;4.422;2023-05-07T06:20:18;101056.34;;;15.46;78.59
76164;BME280;64897;50.816;4.422;2023-05-07T06:23:06;101056.72;;;15.52;78.44
76164;BME280;64897;50.816;4.422;2023-05-07T06:25:55;101059.09;;;15.55;78.72
76164;BME280;64897;50.816;4.422;2023-05-07T06:28:47;101067.63;;;15.48;78.74
76164;BME280;64897;50.816;4.422;2023-05-07T06:31:35;101070.25;;;15.48;79.13
76164;BME280;64897;50.816;4.422;2023-05-07T06:34:26;101061.84;;;15.54;79.50
76164;BME280;64897;50.816;4.422;2023-05-07T06:37:13;101062.78;;;15.53;80.73
76164;BME280;64897;50.816;4.422;2023-05-07T06:40:25;101075.28;;;15.51;83.82
76164;BME280;64897;50.816;4.422;2023-05-07T06:43:13;101068.34;;;15.50;84.84
76164;BME280;64897;50.816;4.422;2023-05-07T06:46:07;101070.72;;;15.41;89.96
76164;BME280;64897;50.816;4.422;2023-05-07T06:48:54;101080.22;;;15.33;89.98
76164;BME280;64897;50.816;4.422;2023-05-07T06:51:42;101082.22;;;15.20;92.84
76164;BME280;64897;50.816;4.422;2023-05-07T06:54:29;101080.47;;;15.09;95.60
76164;BME280;64897;50.816;4.422;2023-05-07T06:57:17;101084.78;;;14.99;96.29
76164;BME280;64897;50.816;4.422;2023-05-07T07:00:07;101091.13;;;14.97;96.25
76164;BME280;64897;50.816;4.422;2023-05-07T07:03:03;101087.19;;;14.91;100.00
76164;BME280;64897;50.816;4.422;2023-05-07T07:05:52;101084.34;;;14.83;100.00
76164;BME280;64897;50.816;4.422;2023-05-07T07:08:39;101089.38;;;14.86;100.00
76164;BME280;64897;50.816;4.422;2023-05-07T07:11:27;101087.97;;;14.71;100.00
76164;BME280;64897;50.816;4.422;2023-05-07T07:14:14;101084.63;;;14.58;100.00
76164;BME280;64897;50.816;4.422;2023-05-07T07:17:07;101089.53;;;14.51;100.00
76164;BME280;64897;50.816;4.422;2023-05-07T07:19:54;101092.03;;;14.53;100.00
76164;BME280;64897;50.816;4.422;2023-05-07T07:22:41;101088.47;;;14.43;100.00
76164;BME280;64897;50.816;4.422;2023-05-07T07:25:28;101093.97;;;14.51;100.00
76164;BME280;64897;50.816;4.422;2023-05-07T07:28:15;101087.97;;;14.60;100.00
76164;BME280;64897;50.816;4.422;2023-05-07T07:31:03;101099.91;;;14.64;100.00
76164;BME280;64897;50.816;4.422;2023-05-07T07:33:51;101099.66;;;14.67;100.00
76164;BME280;64897;50.816;4.422;2023-05-07T07:36:39;101099.44;;;14.70;100.00
76164;BME280;64897;50.816;4.422;2023-05-07T07:39:26;101093.44;;;14.79;100.00
76164;BME280;64897;50.816;4.422;2023-05-07T07:42:15;101099.94;;;15.18;100.00
76164;BME280;64897;50.816;4.422;2023-05-07T07:45:03;101099.72;;;14.99;100.00
76164;BME280;64897;50.816;4.422;2023-05-07T07:47:53;101096.50;;;15.06;100.00
76164;BME280;64897;50.816;4.422;2023-05-07T07:50:42;101099.38;;;15.03;100.00
76164;BME280;64897;50.816;4.422;2023-05-07T07:53:29;101104.41;;;14.95;100.00
76164;BME280;64897;50.816;4.422;2023-05-07T07:56:16;101107.13;;;15.05;100.00
76164;BME280;64897;50.816;4.422;2023-05-07T07:59:03;101105.47;;;15.47;100.00
76164;BME280;64897;50.816;4.422;2023-05-07T08:01:51;62132.72;;;-142.73;100.00
76164;BME280;64897;50.816;4.422;2023-05-07T08:04:41;62132.72;;;-142.73;100.00
76164;BME280;64897;50.816;4.422;2023-05-07T08:07:30;62132.72;;;-142.73;100.00
76164;BME280;64897;50.816;4.422;2023-05-07T08:10:17;62132.72;;;-142.73;100.00
76164;BME280;64897;50.816;4.422;2023-05-07T08:13:08;62132.72;;;-142.73;100.00
76164;BME280;64897;50.816;4.422;2023-05-07T08:15:57;62132.72;;;-142.73;100.00
76164;BME280;64897;50.816;4.422;2023-05-07T08:18:44;62132.72;;;-142.73;100.00
76164;BME280;64897;50.816;4.422;2023-05-07T08:21:31;62132.72;;;-142.73;100.00
76164;BME280;64897;50.816;4.422;2023-05-07T08:24:20;62132.72;;;-142.73;100.00
76164;BME280;64897;50.816;4.422;2023-05-07T08:27:07;62132.72;;;-142.73;100.00
76164;BME280;64897;50.816;4.422;2023-05-07T08:29:54;62132.72;;;-142.73;100.00
76164;BME280;64897;50.816;4.422;2023-05-07T08:32:41;62132.72;;;-142.73;100.00
76164;BME280;64897;50.816;4.422;2023-05-07T08:35:28;62132.72;;;-142.73;100.00
76164;BME280;64897;50.816;4.422;2023-05-07T08:38:15;62132.72;;;-142.73;100.00
76164;BME280;64897;50.816;4.422;2023-05-07T08:41:03;62132.72;;;-142.73;100.00
76164;BME280;64897;50.816;4.422;2023-05-07T08:43:52;62132.72;;;-142.73;100.00
76164;BME280;64897;50.816;4.422;2023-05-07T08:46:45;62132.72;;;-142.73;100.00
76164;BME280;64897;50.816;4.422;2023-05-07T08:49:35;62132.72;;;-142.73;100.00
76164;BME280;64897;50.816;4.422;2023-05-07T08:52:22;62132.72;;;-142.73;100.00
76164;BME280;64897;50.816;4.422;2023-05-07T08:55:10;62132.72;;;-142.73;100.00
76164;BME280;64897;50.816;4.422;2023-05-07T08:57:58;62132.72;;;-142.73;100.00
76164;BME280;64897;50.816;4.422;2023-05-07T09:00:46;62132.72;;;-142.73;100.00
76164;BME280;64897;50.816;4.422;2023-05-07T09:03:34;62132.72;;;-142.73;100.00
76164;BME280;64897;50.816;4.422;2023-05-07T09:06:21;62132.72;;;-142.73;100.00
76164;BME280;64897;50.816;4.422;2023-05-07T09:09:08;62132.72;;;-142.73;100.00
76164;BME280;64897;50.816;4.422;2023-05-07T09:11:57;62132.72;;;-142.73;100.00
76164;BME280;64897;50.816;4.422;2023-05-07T09:14:48;62132.72;;;-142.73;100.00
76164;BME280;64897;50.816;4.422;2023-05-07T09:17:35;62132.72;;;-142.73;100.00
76164;BME280;64897;50.816;4.422;2023-05-07T09:20:22;62132.72;;;-142.73;100.00
76164;BME280;64897;50.816;4.422;2023-05-07T09:23:09;62132.72;;;-142.73;100.00
76164;BME280;64897;50.816;4.422;2023-05-07T09:26:00;62132.72;;;-142.73;100.00
76164;BME280;64897;50.816;4.422;2023-05-07T09:28:51;62132.72;;;-142.73;100.00
76164;BME280;64897;50.816;4.422;2023-05-07T09:31:40;62132.72;;;-142.73;100.00
76164;BME280;64897;50.816;4.422;2023-05-07T09:34:29;62132.72;;;-142.73;100.00
76164;BME280;64897;50.816;4.422;2023-05-07T09:37:16;62132.72;;;-142.73;100.00
76164;BME280;64897;50.816;4.422;2023-05-07T09:40:04;62132.72;;;-142.73;100.00
76164;BME280;64897;50.816;4.422;2023-05-07T09:42:52;62132.72;;;-142.73;100.00
76164;BME280;64897;50.816;4.422;2023-05-07T09:45:43;62132.72;;;-142.73;100.00
76164;BME280;64897;50.816;4.422;2023-05-07T09:48:36;62132.72;;;-142.73;100.00
76164;BME280;64897;50.816;4.422;2023-05-07T09:51:28;62132.72;;;-142.73;100.00
76164;BME280;64897;50.816;4.422;2023-05-07T09:54:18;62132.72;;;-142.73;100.00
76164;BME280;64897;50.816;4.422;2023-05-07T09:57:10;62132.72;;;-142.73;100.00
76164;BME280;64897;50.816;4.422;2023-05-07T10:00:02;62132.72;;;-142.73;100.00
76164;BME280;64897;50.816;4.422;2023-05-07T10:02:57;62132.72;;;-142.73;100.00
76164;BME280;64897;50.816;4.422;2023-05-07T10:05:55;62132.72;;;-142.73;100.00
76164;BME280;64897;50.816;4.422;2023-05-07T10:08:43;62132.72;;;-142.73;100.00
76164;BME280;64897;50.816;4.422;2023-05-07T10:11:31;62132.72;;;-142.73;100.00
76164;BME280;64897;50.816;4.422;2023-05-07T10:14:20;62132.72;;;-142.73;100.00
76164;BME280;64897;50.816;4.422;2023-05-07T10:17:08;62132.72;;;-142.73;100.00
76164;BME280;64897;50.816;4.422;2023-05-07T10:19:57;62132.72;;;-142.73;100.00
76164;BME280;64897;50.816;4.422;2023-05-07T10:23:46;62132.72;;;-142.73;100.00
76164;BME280;64897;50.816;4.422;2023-05-07T10:27:34;62132.72;;;-142.73;100.00
76164;BME280;64897;50.816;4.422;2023-05-07T10:31:33;62132.72;;;-142.73;100.00
76164;BME280;64897;50.816;4.422;2023-05-07T10:34:28;62132.72;;;-142.73;100.00
76164;BME280;64897;50.816;4.422;2023-05-07T10:37:17;62132.72;;;-142.73;100.00
76164;BME280;64897;50.816;4.422;2023-05-07T10:40:08;62132.72;;;-142.73;100.00
76164;BME280;64897;50.816;4.422;2023-05-07T10:43:55;62132.72;;;-142.73;100.00
76164;BME280;64897;50.816;4.422;2023-05-07T10:48:05;62132.72;;;-142.73;100.00
76164;BME280;64897;50.816;4.422;2023-05-07T10:51:20;62132.72;;;-142.73;100.00
76164;BME280;64897;50.816;4.422;2023-05-07T10:54:21;62132.72;;;-142.73;100.00
76164;BME280;64897;50.816;4.422;2023-05-07T10:57:34;62132.72;;;-142.73;100.00
76164;BME280;64897;50.816;4.422;2023-05-07T11:00:42;62132.72;;;-142.73;100.00
76164;BME280;64897;50.816;4.422;2023-05-07T11:03:36;62132.72;;;-142.73;100.00
76164;BME280;64897;50.816;4.422;2023-05-07T11:10:48;62132.72;;;-142.73;100.00
76164;BME280;64897;50.816;4.422;2023-05-07T11:13:43;62132.72;;;-142.73;100.00
76164;BME280;64897;50.816;4.422;2023-05-07T11:16:39;62132.72;;;-142.73;100.00
76164;BME280;64897;50.816;4.422;2023-05-07T11:19:48;62132.72;;;-142.73;100.00
76164;BME280;64897;50.816;4.422;2023-05-07T11:22:40;62132.72;;;-142.73;100.00
76164;BME280;64897;50.816;4.422;2023-05-07T11:25:49;62132.72;;;-142.73;100.00
76164;BME280;64897;50.816;4.422;2023-05-07T11:28:42;62132.72;;;-142.73;100.00
76164;BME280;64897;50.816;4.422;2023-05-07T11:31:30;62132.72;;;-142.73;100.00
76164;BME280;64897;50.816;4.422;2023-05-07T11:34:23;62132.72;;;-142.73;100.00
76164;BME280;64897;50.816;4.422;2023-05-07T11:37:17;62132.72;;;-142.73;100.00
76164;BME280;64897;50.816;4.422;2023-05-07T11:40:19;62132.72;;;-142.73;100.00
76164;BME280;64897;50.816;4.422;2023-05-07T11:43:11;62132.72;;;-142.73;100.00
76164;BME280;64897;50.816;4.422;2023-05-07T11:46:08;62132.72;;;-142.73;100.00
76164;BME280;64897;50.816;4.422;2023-05-07T11:48:55;62132.72;;;-142.73;100.00
76164;BME280;64897;50.816;4.422;2023-05-07T11:51:42;62132.72;;;-142.73;100.00
76164;BME280;64897;50.816;4.422;2023-05-07T11:54:35;62132.72;;;-142.73;100.00
76164;BME280;64897;50.816;4.422;2023-05-07T11:57:25;62132.72;;;-142.73;100.00
76164;BME280;64897;50.816;4.422;2023-05-07T12:00:16;62132.72;;;-142.73;100.00
76164;BME280;64897;50.816;4.422;2023-05-07T12:03:04;62132.72;;;-142.73;100.00
76164;BME280;64897;50.816;4.422;2023-05-07T12:05:51;62132.72;;;-142.73;100.00
76164;BME280;64897;50.816;4.422;2023-05-07T12:08:43;62132.72;;;-142.73;100.00
76164;BME280;64897;50.816;4.422;2023-05-07T12:11:30;62132.72;;;-142.73;100.00
76164;BME280;64897;50.816;4.422;2023-05-07T12:14:18;62132.72;;;-142.73;100.00
76164;BME280;64897;50.816;4.422;2023-05-07T12:17:06;62132.72;;;-142.73;100.00
76164;BME280;64897;50.816;4.422;2023-05-07T12:19:54;62132.72;;;-142.73;100.00
76164;BME280;64897;50.816;4.422;2023-05-07T12:22:41;62132.72;;;-142.73;100.00
76164;BME280;64897;50.816;4.422;2023-05-07T12:25:30;62132.72;;;-142.73;100.00
76164;BME280;64897;50.816;4.422;2023-05-07T12:28:19;62132.72;;;-142.73;100.00
76164;BME280;64897;50.816;4.422;2023-05-07T12:31:07;62132.72;;;-142.73;100.00
76164;BME280;64897;50.816;4.422;2023-05-07T12:33:54;62132.72;;;-142.73;100.00
76164;BME280;64897;50.816;4.422;2023-05-07T12:36:41;62132.72;;;-142.73;100.00
76164;BME280;64897;50.816;4.422;2023-05-07T12:39:28;62132.72;;;-142.73;100.00
76164;BME280;64897;50.816;4.422;2023-05-07T12:42:16;62132.72;;;-142.73;100.00
76164;BME280;64897;50.816;4.422;2023-05-07T12:45:08;62132.72;;;-142.73;100.00
76164;BME280;64897;50.816;4.422;2023-05-07T12:48:01;62132.72;;;-142.73;100.00
76164;BME280;64897;50.816;4.422;2023-05-07T12:50:50;62132.72;;;-142.73;100.00
76164;BME280;64897;50.816;4.422;2023-05-07T12:53:40;62132.72;;;-142.73;100.00
76164;BME280;64897;50.816;4.422;2023-05-07T12:56:31;62132.72;;;-142.73;100.00
76164;BME280;64897;50.816;4.422;2023-05-07T12:59:18;62132.72;;;-142.73;100.00
76164;BME280;64897;50.816;4.422;2023-05-07T13:02:05;62132.72;;;-142.73;100.00
76164;BME280;64897;50.816;4.422;2023-05-07T13:04:55;62132.72;;;-142.73;100.00
76164;BME280;64897;50.816;4.422;2023-05-07T13:07:53;62132.72;;;-142.73;100.00
76164;BME280;64897;50.816;4.422;2023-05-07T13:10:40;62132.72;;;-142.73;100.00
76164;BME280;64897;50.816;4.422;2023-05-07T13:13:26;62132.72;;;-142.73;100.00
76164;BME280;64897;50.816;4.422;2023-05-07T13:16:14;62132.72;;;-142.73;100.00
76164;BME280;64897;50.816;4.422;2023-05-07T13:19:01;62132.72;;;-142.73;100.00
76164;BME280;64897;50.816;4.422;2023-05-07T13:21:49;62132.72;;;-142.73;100.00
76164;BME280;64897;50.816;4.422;2023-05-07T13:24:36;62132.72;;;-142.73;100.00
76164;BME280;64897;50.816;4.422;2023-05-07T13:27:23;62132.72;;;-142.73;100.00
76164;BME280;64897;50.816;4.422;2023-05-07T13:30:10;62132.72;;;-142.73;100.00
76164;BME280;64897;50.816;4.422;2023-05-07T13:32:57;62132.72;;;-142.73;100.00
76164;BME280;64897;50.816;4.422;2023-05-07T13:35:44;62132.72;;;-142.73;100.00
76164;BME280;64897;50.816;4.422;2023-05-07T13:38:32;62132.72;;;-142.73;100.00
76164;BME280;64897;50.816;4.422;2023-05-07T13:41:19;62132.72;;;-142.73;100.00
76164;BME280;64897;50.816;4.422;2023-05-07T13:44:07;62132.72;;;-142.73;100.00
76164;BME280;64897;50.816;4.422;2023-05-07T13:46:54;62132.72;;;-142.73;100.00
76164;BME280;64897;50.816;4.422;2023-05-07T13:49:41;62132.72;;;-142.73;100.00
76164;BME280;64897;50.816;4.422;2023-05-07T13:52:28;62132.72;;;-142.73;100.00
76164;BME280;64897;50.816;4.422;2023-05-07T13:55:16;62132.72;;;-142.73;100.00
76164;BME280;64897;50.816;4.422;2023-05-07T13:58:03;62132.72;;;-142.73;100.00
76164;BME280;64897;50.816;4.422;2023-05-07T14:00:50;62132.72;;;-142.73;100.00
76164;BME280;64897;50.816;4.422;2023-05-07T14:03:39;62132.72;;;-142.73;100.00
76164;BME280;64897;50.816;4.422;2023-05-07T14:06:26;62132.72;;;-142.73;100.00
76164;BME280;64897;50.816;4.422;2023-05-07T14:09:13;62132.72;;;-142.73;100.00
76164;BME280;64897;50.816;4.422;2023-05-07T14:12:02;62132.72;;;-142.73;100.00
76164;BME280;64897;50.816;4.422;2023-05-07T14:14:49;62132.72;;;-142.73;100.00
76164;BME280;64897;50.816;4.422;2023-05-07T14:17:36;62132.72;;;-142.73;100.00
76164;BME280;64897;50.816;4.422;2023-05-07T14:20:23;62132.72;;;-142.73;100.00
76164;BME280;64897;50.816;4.422;2023-05-07T14:23:10;62132.72;;;-142.73;100.00
76164;BME280;64897;50.816;4.422;2023-05-07T14:25:56;62132.72;;;-142.73;100.00
76164;BME280;64897;50.816;4.422;2023-05-07T14:28:44;62132.72;;;-142.73;100.00
76164;BME280;64897;50.816;4.422;2023-05-07T14:31:32;62132.72;;;-142.73;100.00
76164;BME280;64897;50.816;4.422;2023-05-07T14:34:19;62132.72;;;-142.73;100.00
76164;BME280;64897;50.816;4.422;2023-05-07T14:37:06;62132.72;;;-142.73;100.00
76164;BME280;64897;50.816;4.422;2023-05-07T14:39:53;62132.72;;;-142.73;100.00
76164;BME280;64897;50.816;4.422;2023-05-07T14:42:40;62132.72;;;-142.73;100.00